sensor_id;sensor_type;location;lat;lon;timestamp;P1;durP1;ratioP1;P2;durP2;ratioP2
46084;SDS011;31823;47.032;8.310;2022-08-03T00:01:31;11.65;;;5.07;;
46084;SDS011;31823;47.032;8.310;2022-08-03T00:03:57;7.95;;;4.47;;
46084;SDS011;31823;47.032;8.310;2022-08-03T00:06:23;5.88;;;4.78;;
46084;SDS011;31823;47.032;8.310;2022-08-03T00:08:48;6.70;;;4.45;;
46084;SDS011;31823;47.032;8.310;2022-08-03T00:11:14;10.38;;;4.82;;
46084;SDS011;31823;47.032;8.310;2022-08-03T00:13:40;7.88;;;5.00;;
46084;SDS011;31823;47.032;8.310;2022-08-03T00:16:05;7.93;;;5.30;;
46084;SDS011;31823;47.032;8.310;2022-08-03T00:18:31;8.13;;;4.70;;
46084;SDS011;31823;47.032;8.310;2022-08-03T00:20:58;9.50;;;4.53;;
46084;SDS011;31823;47.032;8.310;2022-08-03T00:23:24;6.18;;;4.57;;
46084;SDS011;31823;47.032;8.310;2022-08-03T00:25:49;11.32;;;5.32;;
46084;SDS011;31823;47.032;8.310;2022-08-03T00:28:15;7.45;;;4.95;;
46084;SDS011;31823;47.032;8.310;2022-08-03T00:30:41;9.73;;;4.07;;
46084;SDS011;31823;47.032;8.310;2022-08-03T00:33:07;5.75;;;5.00;;
46084;SDS011;31823;47.032;8.310;2022-08-03T00:35:34;7.63;;;4.75;;
46084;SDS011;31823;47.032;8.310;2022-08-03T00:38:00;7.75;;;4.85;;
46084;SDS011;31823;47.032;8.310;2022-08-03T00:40:26;6.20;;;4.75;;
46084;SDS011;31823;47.032;8.310;2022-08-03T00:45:18;7.25;;;4.45;;
46084;SDS011;31823;47.032;8.310;2022-08-03T00:47:45;5.95;;;5.07;;
46084;SDS011;31823;47.032;8.310;2022-08-03T00:50:11;7.28;;;4.72;;
46084;SDS011;31823;47.032;8.310;2022-08-03T00:52:37;8.00;;;4.75;;
46084;SDS011;31823;47.032;8.310;2022-08-03T00:55:04;4.93;;;4.43;;
46084;SDS011;31823;47.032;8.310;2022-08-03T00:57:30;7.85;;;4.75;;
46084;SDS011;31823;47.032;8.310;2022-08-03T00:59:57;6.85;;;4.70;;
46084;SDS011;31823;47.032;8.310;2022-08-03T01:02:24;5.55;;;4.82;;
46084;SDS011;31823;47.032;8.310;2022-08-03T01:04:50;8.98;;;5.00;;
46084;SDS011;31823;47.032;8.310;2022-08-03T01:07:20;9.07;;;4.47;;
46084;SDS011;31823;47.032;8.310;2022-08-03T01:15:44;8.38;;;4.85;;
46084;SDS011;31823;47.032;8.310;2022-08-03T01:18:26;9.77;;;5.05;;
46084;SDS011;31823;47.032;8.310;2022-08-03T01:21:19;8.82;;;4.13;;
46084;SDS011;31823;47.032;8.310;2022-08-03T01:24:00;7.80;;;4.95;;
46084;SDS011;31823;47.032;8.310;2022-08-03T01:27:04;8.55;;;4.75;;
46084;SDS011;31823;47.032;8.310;2022-08-03T01:29:51;8.70;;;5.45;;
46084;SDS011;31823;47.032;8.310;2022-08-03T01:32:26;5.75;;;5.00;;
46084;SDS011;31823;47.032;8.310;2022-08-03T01:35:16;6.53;;;4.72;;
46084;SDS011;31823;47.032;8.310;2022-08-03T01:37:56;5.55;;;4.35;;
46084;SDS011;31823;47.032;8.310;2022-08-03T01:40:26;8.40;;;4.90;;
46084;SDS011;31823;47.032;8.310;2022-08-03T01:42:54;7.93;;;5.00;;
46084;SDS011;31823;47.032;8.310;2022-08-03T01:45:22;5.68;;;4.65;;
46084;SDS011;31823;47.032;8.310;2022-08-03T01:47:49;7.05;;;5.00;;
46084;SDS011;31823;47.032;8.310;2022-08-03T01:50:20;11.27;;;5.68;;
46084;SDS011;31823;47.032;8.310;2022-08-03T01:52:50;13.38;;;5.50;;
46084;SDS011;31823;47.032;8.310;2022-08-03T01:55:18;7.13;;;4.63;;
46084;SDS011;31823;47.032;8.310;2022-08-03T01:57:46;11.45;;;5.65;;
46084;SDS011;31823;47.032;8.310;2022-08-03T02:00:14;7.40;;;4.95;;
46084;SDS011;31823;47.032;8.310;2022-08-03T02:02:41;7.18;;;5.25;;
46084;SDS011;31823;47.032;8.310;2022-08-03T02:05:08;6.07;;;4.93;;
46084;SDS011;31823;47.032;8.310;2022-08-03T02:07:39;9.30;;;4.82;;
46084;SDS011;31823;47.032;8.310;2022-08-03T02:10:05;10.65;;;5.03;;
46084;SDS011;31823;47.032;8.310;2022-08-03T02:12:32;8.40;;;5.10;;
46084;SDS011;31823;47.032;8.310;2022-08-03T02:15:01;9.48;;;4.93;;
46084;SDS011;31823;47.032;8.310;2022-08-03T02:17:27;6.20;;;4.60;;
46084;SDS011;31823;47.032;8.310;2022-08-03T02:19:55;9.35;;;5.18;;
46084;SDS011;31823;47.032;8.310;2022-08-03T02:22:22;9.35;;;4.93;;
46084;SDS011;31823;47.032;8.310;2022-08-03T02:24:49;7.60;;;4.97;;
46084;SDS011;31823;47.032;8.310;2022-08-03T02:27:22;8.02;;;4.88;;
46084;SDS011;31823;47.032;8.310;2022-08-03T02:30:04;7.30;;;5.18;;
46084;SDS011;31823;47.032;8.310;2022-08-03T02:32:36;7.97;;;4.75;;
46084;SDS011;31823;47.032;8.310;2022-08-03T02:35:12;9.15;;;4.47;;
46084;SDS011;31823;47.032;8.310;2022-08-03T02:37:42;8.43;;;4.32;;
46084;SDS011;31823;47.032;8.310;2022-08-03T02:40:29;7.68;;;4.30;;
46084;SDS011;31823;47.032;8.310;2022-08-03T02:42:58;5.15;;;4.10;;
46084;SDS011;31823;47.032;8.310;2022-08-03T02:45:27;9.95;;;5.38;;
46084;SDS011;31823;47.032;8.310;2022-08-03T02:47:56;6.20;;;4.55;;
46084;SDS011;31823;47.032;8.310;2022-08-03T02:50:25;7.47;;;5.30;;
46084;SDS011;31823;47.032;8.310;2022-08-03T02:52:52;12.82;;;4.03;;
46084;SDS011;31823;47.032;8.310;2022-08-03T02:55:20;5.38;;;4.38;;
46084;SDS011;31823;47.032;8.310;2022-08-03T02:57:47;7.93;;;4.53;;
46084;SDS011;31823;47.032;8.310;2022-08-03T03:00:14;8.75;;;5.13;;
46084;SDS011;31823;47.032;8.310;2022-08-03T03:02:41;5.30;;;3.67;;
46084;SDS011;31823;47.032;8.310;2022-08-03T03:05:08;8.60;;;4.10;;
46084;SDS011;31823;47.032;8.310;2022-08-03T03:07:35;6.90;;;4.00;;
46084;SDS011;31823;47.032;8.310;2022-08-03T03:10:02;9.43;;;4.55;;
46084;SDS011;31823;47.032;8.310;2022-08-03T03:12:28;6.63;;;4.72;;
46084;SDS011;31823;47.032;8.310;2022-08-03T03:14:57;11.70;;;5.00;;
46084;SDS011;31823;47.032;8.310;2022-08-03T03:17:22;7.22;;;4.18;;
46084;SDS011;31823;47.032;8.310;2022-08-03T03:19:51;10.35;;;4.50;;
46084;SDS011;31823;47.032;8.310;2022-08-03T03:22:17;14.98;;;4.75;;
46084;SDS011;31823;47.032;8.310;2022-08-03T03:24:43;7.80;;;4.38;;
46084;SDS011;31823;47.032;8.310;2022-08-03T03:27:12;10.68;;;4.72;;
46084;SDS011;31823;47.032;8.310;2022-08-03T03:29:39;5.30;;;4.47;;
46084;SDS011;31823;47.032;8.310;2022-08-03T03:32:05;9.38;;;4.45;;
46084;SDS011;31823;47.032;8.310;2022-08-03T03:34:31;6.65;;;4.35;;
46084;SDS011;31823;47.032;8.310;2022-08-03T03:36:57;6.65;;;4.90;;
46084;SDS011;31823;47.032;8.310;2022-08-03T03:39:23;7.40;;;4.55;;
46084;SDS011;31823;47.032;8.310;2022-08-03T03:41:49;13.07;;;5.07;;
46084;SDS011;31823;47.032;8.310;2022-08-03T03:44:15;5.13;;;4.32;;
46084;SDS011;31823;47.032;8.310;2022-08-03T03:46:40;5.82;;;4.60;;
46084;SDS011;31823;47.032;8.310;2022-08-03T03:49:06;6.05;;;4.45;;
46084;SDS011;31823;47.032;8.310;2022-08-03T03:51:32;7.13;;;4.95;;
46084;SDS011;31823;47.032;8.310;2022-08-03T03:53:59;8.75;;;4.97;;
46084;SDS011;31823;47.032;8.310;2022-08-03T03:56:27;6.93;;;4.97;;
46084;SDS011;31823;47.032;8.310;2022-08-03T03:58:53;6.22;;;4.82;;
46084;SDS011;31823;47.032;8.310;2022-08-03T04:01:20;6.90;;;4.50;;
46084;SDS011;31823;47.032;8.310;2022-08-03T04:03:46;6.10;;;4.25;;
46084;SDS011;31823;47.032;8.310;2022-08-03T04:06:12;7.70;;;4.75;;
46084;SDS011;31823;47.032;8.310;2022-08-03T04:08:57;5.65;;;4.00;;
46084;SDS011;31823;47.032;8.310;2022-08-03T04:11:47;8.38;;;5.25;;
46084;SDS011;31823;47.032;8.310;2022-08-03T04:17:00;8.50;;;3.92;;
46084;SDS011;31823;47.032;8.310;2022-08-03T04:19:33;6.03;;;4.05;;
46084;SDS011;31823;47.032;8.310;2022-08-03T04:22:11;5.38;;;4.10;;
46084;SDS011;31823;47.032;8.310;2022-08-03T04:24:48;4.70;;;4.20;;
46084;SDS011;31823;47.032;8.310;2022-08-03T04:27:22;6.68;;;4.28;;
46084;SDS011;31823;47.032;8.310;2022-08-03T04:29:52;8.82;;;4.63;;
46084;SDS011;31823;47.032;8.310;2022-08-03T04:32:19;5.32;;;4.00;;
46084;SDS011;31823;47.032;8.310;2022-08-03T04:34:47;6.68;;;4.45;;
46084;SDS011;31823;47.032;8.310;2022-08-03T04:37:19;6.43;;;4.32;;
46084;SDS011;31823;47.032;8.310;2022-08-03T04:39:59;5.35;;;3.65;;
46084;SDS011;31823;47.032;8.310;2022-08-03T04:42:27;6.57;;;4.38;;
46084;SDS011;31823;47.032;8.310;2022-08-03T04:44:55;7.28;;;4.78;;
46084;SDS011;31823;47.032;8.310;2022-08-03T04:47:22;5.28;;;4.40;;
46084;SDS011;31823;47.032;8.310;2022-08-03T04:49:48;5.60;;;4.07;;
46084;SDS011;31823;47.032;8.310;2022-08-03T04:52:14;6.47;;;4.15;;
46084;SDS011;31823;47.032;8.310;2022-08-03T04:54:44;7.75;;;4.20;;
46084;SDS011;31823;47.032;8.310;2022-08-03T04:57:10;5.47;;;4.45;;
46084;SDS011;31823;47.032;8.310;2022-08-03T04:59:37;6.82;;;4.07;;
46084;SDS011;31823;47.032;8.310;2022-08-03T05:02:03;6.75;;;4.07;;
46084;SDS011;31823;47.032;8.310;2022-08-03T05:04:28;8.05;;;4.63;;
46084;SDS011;31823;47.032;8.310;2022-08-03T05:06:54;6.65;;;4.57;;
46084;SDS011;31823;47.032;8.310;2022-08-03T05:09:20;9.57;;;4.32;;
46084;SDS011;31823;47.032;8.310;2022-08-03T05:11:46;7.25;;;4.03;;
46084;SDS011;31823;47.032;8.310;2022-08-03T05:14:12;5.65;;;4.28;;
46084;SDS011;31823;47.032;8.310;2022-08-03T05:16:38;6.30;;;3.88;;
46084;SDS011;31823;47.032;8.310;2022-08-03T05:19:03;8.43;;;4.35;;
46084;SDS011;31823;47.032;8.310;2022-08-03T05:21:29;8.02;;;4.68;;
46084;SDS011;31823;47.032;8.310;2022-08-03T05:23:55;10.98;;;4.32;;
46084;SDS011;31823;47.032;8.310;2022-08-03T05:26:20;8.65;;;4.35;;
46084;SDS011;31823;47.032;8.310;2022-08-03T05:28:46;6.05;;;3.97;;
46084;SDS011;31823;47.032;8.310;2022-08-03T05:31:12;6.70;;;4.35;;
46084;SDS011;31823;47.032;8.310;2022-08-03T05:33:38;8.90;;;4.25;;
46084;SDS011;31823;47.032;8.310;2022-08-03T05:36:04;11.02;;;4.72;;
46084;SDS011;31823;47.032;8.310;2022-08-03T05:38:30;7.25;;;4.55;;
46084;SDS011;31823;47.032;8.310;2022-08-03T05:40:58;8.18;;;4.70;;
46084;SDS011;31823;47.032;8.310;2022-08-03T05:43:23;6.82;;;4.25;;
46084;SDS011;31823;47.032;8.310;2022-08-03T05:45:49;10.23;;;4.65;;
46084;SDS011;31823;47.032;8.310;2022-08-03T05:48:15;7.18;;;4.75;;
46084;SDS011;31823;47.032;8.310;2022-08-03T05:50:41;9.35;;;4.97;;
46084;SDS011;31823;47.032;8.310;2022-08-03T05:53:09;7.93;;;4.43;;
46084;SDS011;31823;47.032;8.310;2022-08-03T05:55:35;11.38;;;5.00;;
46084;SDS011;31823;47.032;8.310;2022-08-03T05:58:03;6.70;;;4.60;;
46084;SDS011;31823;47.032;8.310;2022-08-03T06:00:33;5.70;;;4.25;;
46084;SDS011;31823;47.032;8.310;2022-08-03T06:03:02;12.30;;;4.32;;
46084;SDS011;31823;47.032;8.310;2022-08-03T06:05:28;4.90;;;4.18;;
46084;SDS011;31823;47.032;8.310;2022-08-03T06:07:53;11.70;;;4.05;;
46084;SDS011;31823;47.032;8.310;2022-08-03T06:10:21;10.05;;;5.22;;
46084;SDS011;31823;47.032;8.310;2022-08-03T06:12:50;8.27;;;4.10;;
46084;SDS011;31823;47.032;8.310;2022-08-03T06:15:15;6.15;;;4.25;;
46084;SDS011;31823;47.032;8.310;2022-08-03T06:17:46;9.05;;;4.60;;
46084;SDS011;31823;47.032;8.310;2022-08-03T06:20:14;8.15;;;4.22;;
46084;SDS011;31823;47.032;8.310;2022-08-03T06:22:42;11.23;;;4.50;;
46084;SDS011;31823;47.032;8.310;2022-08-03T06:25:08;6.57;;;4.43;;
46084;SDS011;31823;47.032;8.310;2022-08-03T06:27:33;5.25;;;4.10;;
46084;SDS011;31823;47.032;8.310;2022-08-03T06:30:02;5.95;;;4.38;;
46084;SDS011;31823;47.032;8.310;2022-08-03T06:32:29;6.95;;;4.60;;
46084;SDS011;31823;47.032;8.310;2022-08-03T06:34:54;6.55;;;3.97;;
46084;SDS011;31823;47.032;8.310;2022-08-03T06:37:20;7.75;;;4.05;;
46084;SDS011;31823;47.032;8.310;2022-08-03T06:39:45;6.10;;;4.05;;
46084;SDS011;31823;47.032;8.310;2022-08-03T06:42:11;6.25;;;3.90;;
46084;SDS011;31823;47.032;8.310;2022-08-03T06:44:37;9.18;;;3.78;;
46084;SDS011;31823;47.032;8.310;2022-08-03T06:47:02;9.27;;;4.50;;
46084;SDS011;31823;47.032;8.310;2022-08-03T06:49:28;6.22;;;3.85;;
46084;SDS011;31823;47.032;8.310;2022-08-03T06:51:54;10.18;;;4.88;;
46084;SDS011;31823;47.032;8.310;2022-08-03T06:54:20;5.95;;;3.83;;
46084;SDS011;31823;47.032;8.310;2022-08-03T06:56:48;7.75;;;4.20;;
46084;SDS011;31823;47.032;8.310;2022-08-03T06:59:14;5.35;;;4.47;;
46084;SDS011;31823;47.032;8.310;2022-08-03T07:01:40;6.32;;;4.00;;
46084;SDS011;31823;47.032;8.310;2022-08-03T07:04:05;7.00;;;4.22;;
46084;SDS011;31823;47.032;8.310;2022-08-03T07:06:31;4.55;;;3.83;;
46084;SDS011;31823;47.032;8.310;2022-08-03T07:08:57;8.25;;;4.60;;
46084;SDS011;31823;47.032;8.310;2022-08-03T07:11:23;6.65;;;3.97;;
46084;SDS011;31823;47.032;8.310;2022-08-03T07:13:49;6.10;;;4.13;;
46084;SDS011;31823;47.032;8.310;2022-08-03T07:16:15;4.88;;;4.13;;
46084;SDS011;31823;47.032;8.310;2022-08-03T07:18:41;4.75;;;4.03;;
46084;SDS011;31823;47.032;8.310;2022-08-03T07:21:06;5.22;;;4.50;;
46084;SDS011;31823;47.032;8.310;2022-08-03T07:23:34;5.40;;;4.22;;
46084;SDS011;31823;47.032;8.310;2022-08-03T07:26:00;6.57;;;4.68;;
46084;SDS011;31823;47.032;8.310;2022-08-03T07:28:26;4.65;;;4.15;;
46084;SDS011;31823;47.032;8.310;2022-08-03T07:30:52;7.47;;;4.50;;
46084;SDS011;31823;47.032;8.310;2022-08-03T07:33:18;6.47;;;4.47;;
46084;SDS011;31823;47.032;8.310;2022-08-03T07:35:44;5.40;;;4.57;;
46084;SDS011;31823;47.032;8.310;2022-08-03T07:38:10;5.10;;;4.35;;
46084;SDS011;31823;47.032;8.310;2022-08-03T07:40:35;5.18;;;4.15;;
46084;SDS011;31823;47.032;8.310;2022-08-03T07:43:01;7.15;;;4.85;;
46084;SDS011;31823;47.032;8.310;2022-08-03T07:45:28;5.05;;;4.10;;
46084;SDS011;31823;47.032;8.310;2022-08-03T07:47:55;8.13;;;4.70;;
46084;SDS011;31823;47.032;8.310;2022-08-03T07:50:21;6.47;;;4.80;;
46084;SDS011;31823;47.032;8.310;2022-08-03T07:52:47;7.50;;;4.90;;
46084;SDS011;31823;47.032;8.310;2022-08-03T07:55:25;5.90;;;4.20;;
46084;SDS011;31823;47.032;8.310;2022-08-03T08:00:30;4.78;;;4.05;;
46084;SDS011;31823;47.032;8.310;2022-08-03T08:02:56;6.47;;;4.35;;
46084;SDS011;31823;47.032;8.310;2022-08-03T08:05:22;5.25;;;4.53;;
46084;SDS011;31823;47.032;8.310;2022-08-03T08:07:48;10.10;;;6.15;;
46084;SDS011;31823;47.032;8.310;2022-08-03T08:10:14;7.55;;;4.43;;
46084;SDS011;31823;47.032;8.310;2022-08-03T08:12:39;4.85;;;3.63;;
46084;SDS011;31823;47.032;8.310;2022-08-03T08:15:07;6.22;;;4.90;;
46084;SDS011;31823;47.032;8.310;2022-08-03T08:17:40;6.20;;;4.10;;
46084;SDS011;31823;47.032;8.310;2022-08-03T08:20:14;6.78;;;5.50;;
46084;SDS011;31823;47.032;8.310;2022-08-03T08:22:41;9.60;;;4.90;;
46084;SDS011;31823;47.032;8.310;2022-08-03T08:25:07;7.45;;;4.80;;
46084;SDS011;31823;47.032;8.310;2022-08-03T08:27:33;5.35;;;4.32;;
46084;SDS011;31823;47.032;8.310;2022-08-03T08:30:13;6.18;;;4.40;;
46084;SDS011;31823;47.032;8.310;2022-08-03T08:32:40;7.47;;;4.80;;
46084;SDS011;31823;47.032;8.310;2022-08-03T08:35:07;6.15;;;4.20;;
46084;SDS011;31823;47.032;8.310;2022-08-03T08:37:33;8.63;;;5.97;;
46084;SDS011;31823;47.032;8.310;2022-08-03T08:39:59;5.70;;;4.53;;
46084;SDS011;31823;47.032;8.310;2022-08-03T08:42:25;7.43;;;4.35;;
46084;SDS011;31823;47.032;8.310;2022-08-03T08:44:51;5.88;;;4.72;;
46084;SDS011;31823;47.032;8.310;2022-08-03T08:47:28;6.30;;;4.88;;
46084;SDS011;31823;47.032;8.310;2022-08-03T08:49:54;10.80;;;4.10;;
46084;SDS011;31823;47.032;8.310;2022-08-03T08:52:45;4.82;;;4.10;;
46084;SDS011;31823;47.032;8.310;2022-08-03T08:55:19;9.30;;;4.35;;
46084;SDS011;31823;47.032;8.310;2022-08-03T08:57:51;5.78;;;4.20;;
46084;SDS011;31823;47.032;8.310;2022-08-03T09:00:23;5.53;;;4.60;;
46084;SDS011;31823;47.032;8.310;2022-08-03T09:02:49;6.03;;;4.70;;
46084;SDS011;31823;47.032;8.310;2022-08-03T09:05:15;5.57;;;3.97;;
46084;SDS011;31823;47.032;8.310;2022-08-03T09:07:43;6.95;;;3.88;;
46084;SDS011;31823;47.032;8.310;2022-08-03T09:10:11;5.30;;;4.72;;
46084;SDS011;31823;47.032;8.310;2022-08-03T09:12:40;6.50;;;4.38;;
46084;SDS011;31823;47.032;8.310;2022-08-03T09:15:22;5.00;;;4.50;;
46084;SDS011;31823;47.032;8.310;2022-08-03T09:17:50;9.15;;;4.78;;
46084;SDS011;31823;47.032;8.310;2022-08-03T09:20:17;5.43;;;4.20;;
46084;SDS011;31823;47.032;8.310;2022-08-03T09:30:32;5.68;;;4.50;;
46084;SDS011;31823;47.032;8.310;2022-08-03T09:32:59;7.13;;;4.88;;
46084;SDS011;31823;47.032;8.310;2022-08-03T09:35:42;6.50;;;5.10;;
46084;SDS011;31823;47.032;8.310;2022-08-03T09:40:36;6.45;;;5.28;;
46084;SDS011;31823;47.032;8.310;2022-08-03T09:43:02;7.10;;;5.15;;
46084;SDS011;31823;47.032;8.310;2022-08-03T09:45:27;5.35;;;4.80;;
46084;SDS011;31823;47.032;8.310;2022-08-03T09:47:54;5.65;;;4.65;;
46084;SDS011;31823;47.032;8.310;2022-08-03T09:50:20;6.28;;;4.95;;
46084;SDS011;31823;47.032;8.310;2022-08-03T09:52:46;5.80;;;4.20;;
46084;SDS011;31823;47.032;8.310;2022-08-03T09:55:15;5.35;;;3.95;;
46084;SDS011;31823;47.032;8.310;2022-08-03T09:57:41;5.00;;;4.22;;
46084;SDS011;31823;47.032;8.310;2022-08-03T10:00:12;6.40;;;4.40;;
46084;SDS011;31823;47.032;8.310;2022-08-03T10:02:40;9.18;;;5.53;;
46084;SDS011;31823;47.032;8.310;2022-08-03T10:05:08;7.13;;;5.47;;
46084;SDS011;31823;47.032;8.310;2022-08-03T10:07:46;6.55;;;5.53;;
46084;SDS011;31823;47.032;8.310;2022-08-03T10:10:13;5.85;;;4.43;;
46084;SDS011;31823;47.032;8.310;2022-08-03T10:12:39;5.55;;;4.60;;
46084;SDS011;31823;47.032;8.310;2022-08-03T10:15:06;7.10;;;4.72;;
46084;SDS011;31823;47.032;8.310;2022-08-03T10:17:33;6.78;;;5.32;;
46084;SDS011;31823;47.032;8.310;2022-08-03T10:19:58;5.78;;;5.03;;
46084;SDS011;31823;47.032;8.310;2022-08-03T10:22:34;6.55;;;4.95;;
46084;SDS011;31823;47.032;8.310;2022-08-03T10:25:07;7.70;;;5.30;;
46084;SDS011;31823;47.032;8.310;2022-08-03T10:27:36;6.55;;;5.05;;
46084;SDS011;31823;47.032;8.310;2022-08-03T10:30:07;5.75;;;4.78;;
46084;SDS011;31823;47.032;8.310;2022-08-03T10:32:48;5.50;;;4.70;;
46084;SDS011;31823;47.032;8.310;2022-08-03T10:35:18;5.75;;;4.40;;
46084;SDS011;31823;47.032;8.310;2022-08-03T10:37:57;5.97;;;5.22;;
46084;SDS011;31823;47.032;8.310;2022-08-03T10:40:25;6.63;;;4.60;;
46084;SDS011;31823;47.032;8.310;2022-08-03T10:42:53;5.32;;;4.82;;
46084;SDS011;31823;47.032;8.310;2022-08-03T10:45:23;5.28;;;4.75;;
46084;SDS011;31823;47.032;8.310;2022-08-03T10:47:50;5.68;;;4.90;;
46084;SDS011;31823;47.032;8.310;2022-08-03T10:50:18;9.15;;;4.78;;
46084;SDS011;31823;47.032;8.310;2022-08-03T10:53:00;5.38;;;4.88;;
46084;SDS011;31823;47.032;8.310;2022-08-03T10:56:00;5.90;;;4.75;;
46084;SDS011;31823;47.032;8.310;2022-08-03T10:58:51;6.15;;;4.63;;
46084;SDS011;31823;47.032;8.310;2022-08-03T11:01:17;7.32;;;4.35;;
46084;SDS011;31823;47.032;8.310;2022-08-03T11:06:29;4.85;;;4.30;;
46084;SDS011;31823;47.032;8.310;2022-08-03T11:11:40;5.40;;;4.25;;
46084;SDS011;31823;47.032;8.310;2022-08-03T11:16:37;5.75;;;4.78;;
46084;SDS011;31823;47.032;8.310;2022-08-03T11:19:08;9.43;;;4.70;;
46084;SDS011;31823;47.032;8.310;2022-08-03T11:37:34;5.50;;;4.47;;
46084;SDS011;31823;47.032;8.310;2022-08-03T11:40:00;5.63;;;4.20;;
46084;SDS011;31823;47.032;8.310;2022-08-03T11:44:56;4.60;;;4.20;;
46084;SDS011;31823;47.032;8.310;2022-08-03T11:47:24;4.88;;;3.75;;
46084;SDS011;31823;47.032;8.310;2022-08-03T11:49:55;4.50;;;4.10;;
46084;SDS011;31823;47.032;8.310;2022-08-03T11:52:24;4.05;;;3.50;;
46084;SDS011;31823;47.032;8.310;2022-08-03T11:54:51;4.88;;;4.35;;
46084;SDS011;31823;47.032;8.310;2022-08-03T11:57:30;6.72;;;3.97;;
46084;SDS011;31823;47.032;8.310;2022-08-03T11:59:58;5.68;;;4.68;;
46084;SDS011;31823;47.032;8.310;2022-08-03T12:02:23;6.78;;;3.65;;
46084;SDS011;31823;47.032;8.310;2022-08-03T12:04:53;5.45;;;4.40;;
46084;SDS011;31823;47.032;8.310;2022-08-03T12:07:22;8.75;;;3.83;;
46084;SDS011;31823;47.032;8.310;2022-08-03T12:12:30;8.35;;;3.65;;
46084;SDS011;31823;47.032;8.310;2022-08-03T12:14:56;4.32;;;3.83;;
46084;SDS011;31823;47.032;8.310;2022-08-03T12:17:22;4.90;;;3.55;;
46084;SDS011;31823;47.032;8.310;2022-08-03T12:19:48;4.28;;;3.88;;
46084;SDS011;31823;47.032;8.310;2022-08-03T12:22:14;6.03;;;4.30;;
46084;SDS011;31823;47.032;8.310;2022-08-03T12:24:43;4.68;;;3.80;;
46084;SDS011;31823;47.032;8.310;2022-08-03T12:27:09;3.85;;;3.33;;
46084;SDS011;31823;47.032;8.310;2022-08-03T12:29:35;5.30;;;3.63;;
46084;SDS011;31823;47.032;8.310;2022-08-03T12:32:01;4.15;;;3.67;;
46084;SDS011;31823;47.032;8.310;2022-08-03T12:37:25;5.28;;;4.10;;
46084;SDS011;31823;47.032;8.310;2022-08-03T12:39:52;6.72;;;3.50;;
46084;SDS011;31823;47.032;8.310;2022-08-03T12:42:19;4.65;;;3.45;;
46084;SDS011;31823;47.032;8.310;2022-08-03T12:44:44;4.10;;;3.67;;
46084;SDS011;31823;47.032;8.310;2022-08-03T12:47:10;4.18;;;3.78;;
46084;SDS011;31823;47.032;8.310;2022-08-03T12:49:46;4.68;;;3.58;;
46084;SDS011;31823;47.032;8.310;2022-08-03T12:52:17;4.18;;;3.58;;
46084;SDS011;31823;47.032;8.310;2022-08-03T12:54:56;6.90;;;3.75;;
46084;SDS011;31823;47.032;8.310;2022-08-03T12:57:24;4.28;;;3.85;;
46084;SDS011;31823;47.032;8.310;2022-08-03T13:00:10;8.02;;;3.97;;
46084;SDS011;31823;47.032;8.310;2022-08-03T13:02:38;6.63;;;3.53;;
46084;SDS011;31823;47.032;8.310;2022-08-03T13:05:13;4.90;;;3.53;;
46084;SDS011;31823;47.032;8.310;2022-08-03T13:10:06;4.55;;;4.05;;
46084;SDS011;31823;47.032;8.310;2022-08-03T13:12:32;3.72;;;3.42;;
46084;SDS011;31823;47.032;8.310;2022-08-03T13:15:00;7.45;;;3.78;;
46084;SDS011;31823;47.032;8.310;2022-08-03T13:17:26;4.28;;;3.58;;
46084;SDS011;31823;47.032;8.310;2022-08-03T13:19:52;4.43;;;4.03;;
46084;SDS011;31823;47.032;8.310;2022-08-03T13:22:19;4.10;;;3.70;;
46084;SDS011;31823;47.032;8.310;2022-08-03T13:24:48;4.10;;;3.70;;
46084;SDS011;31823;47.032;8.310;2022-08-03T13:27:15;4.22;;;3.85;;
46084;SDS011;31823;47.032;8.310;2022-08-03T13:29:41;6.30;;;3.63;;
46084;SDS011;31823;47.032;8.310;2022-08-03T13:32:07;4.00;;;3.60;;
46084;SDS011;31823;47.032;8.310;2022-08-03T13:34:34;7.60;;;3.40;;
46084;SDS011;31823;47.032;8.310;2022-08-03T13:37:00;5.95;;;3.10;;
46084;SDS011;31823;47.032;8.310;2022-08-03T13:39:26;4.45;;;3.97;;
46084;SDS011;31823;47.032;8.310;2022-08-03T13:41:52;6.35;;;3.30;;
46084;SDS011;31823;47.032;8.310;2022-08-03T13:44:18;5.18;;;3.53;;
46084;SDS011;31823;47.032;8.310;2022-08-03T13:46:44;4.35;;;3.65;;
46084;SDS011;31823;47.032;8.310;2022-08-03T13:49:10;5.30;;;3.53;;
46084;SDS011;31823;47.032;8.310;2022-08-03T13:51:36;3.88;;;3.47;;
46084;SDS011;31823;47.032;8.310;2022-08-03T13:54:02;7.88;;;3.70;;
46084;SDS011;31823;47.032;8.310;2022-08-03T13:56:28;4.63;;;3.40;;
46084;SDS011;31823;47.032;8.310;2022-08-03T13:58:55;3.55;;;3.17;;
46084;SDS011;31823;47.032;8.310;2022-08-03T14:01:21;5.45;;;3.65;;
46084;SDS011;31823;47.032;8.310;2022-08-03T14:03:48;4.50;;;3.22;;
46084;SDS011;31823;47.032;8.310;2022-08-03T14:06:18;3.80;;;3.50;;
46084;SDS011;31823;47.032;8.310;2022-08-03T14:08:47;3.50;;;3.05;;
46084;SDS011;31823;47.032;8.310;2022-08-03T14:11:13;3.92;;;3.53;;
46084;SDS011;31823;47.032;8.310;2022-08-03T14:13:40;3.88;;;3.30;;
46084;SDS011;31823;47.032;8.310;2022-08-03T14:16:05;5.65;;;3.25;;
46084;SDS011;31823;47.032;8.310;2022-08-03T14:18:31;3.72;;;2.97;;
46084;SDS011;31823;47.032;8.310;2022-08-03T14:20:57;3.60;;;3.22;;
46084;SDS011;31823;47.032;8.310;2022-08-03T14:23:24;4.90;;;3.08;;
46084;SDS011;31823;47.032;8.310;2022-08-03T14:25:50;3.83;;;3.03;;
46084;SDS011;31823;47.032;8.310;2022-08-03T14:28:16;3.58;;;3.20;;
46084;SDS011;31823;47.032;8.310;2022-08-03T14:30:42;4.10;;;3.38;;
46084;SDS011;31823;47.032;8.310;2022-08-03T14:33:08;5.80;;;3.53;;
46084;SDS011;31823;47.032;8.310;2022-08-03T14:35:34;3.83;;;3.10;;
46084;SDS011;31823;47.032;8.310;2022-08-03T14:37:59;3.10;;;2.80;;
46084;SDS011;31823;47.032;8.310;2022-08-03T14:40:25;6.57;;;3.72;;
46084;SDS011;31823;47.032;8.310;2022-08-03T14:42:51;3.72;;;3.20;;
46084;SDS011;31823;47.032;8.310;2022-08-03T14:45:17;5.85;;;2.90;;
46084;SDS011;31823;47.032;8.310;2022-08-03T14:47:42;4.05;;;3.20;;
46084;SDS011;31823;47.032;8.310;2022-08-03T14:50:08;3.95;;;3.10;;
46084;SDS011;31823;47.032;8.310;2022-08-03T14:52:34;6.88;;;3.17;;
46084;SDS011;31823;47.032;8.310;2022-08-03T14:55:00;4.80;;;3.58;;
46084;SDS011;31823;47.032;8.310;2022-08-03T14:57:26;6.35;;;2.95;;
46084;SDS011;31823;47.032;8.310;2022-08-03T14:59:52;3.95;;;3.42;;
46084;SDS011;31823;47.032;8.310;2022-08-03T15:02:18;3.83;;;3.42;;
46084;SDS011;31823;47.032;8.310;2022-08-03T15:04:43;3.70;;;3.30;;
46084;SDS011;31823;47.032;8.310;2022-08-03T15:07:10;8.13;;;3.22;;
46084;SDS011;31823;47.032;8.310;2022-08-03T15:09:35;3.38;;;2.97;;
46084;SDS011;31823;47.032;8.310;2022-08-03T15:12:03;3.42;;;3.13;;
46084;SDS011;31823;47.032;8.310;2022-08-03T15:14:31;3.60;;;3.30;;
46084;SDS011;31823;47.032;8.310;2022-08-03T15:16:57;5.85;;;3.38;;
46084;SDS011;31823;47.032;8.310;2022-08-03T15:19:23;3.45;;;3.15;;
46084;SDS011;31823;47.032;8.310;2022-08-03T15:21:49;4.47;;;3.25;;
46084;SDS011;31823;47.032;8.310;2022-08-03T15:24:14;4.43;;;3.15;;
46084;SDS011;31823;47.032;8.310;2022-08-03T15:26:40;5.45;;;3.30;;
46084;SDS011;31823;47.032;8.310;2022-08-03T15:29:06;5.20;;;3.10;;
46084;SDS011;31823;47.032;8.310;2022-08-03T15:31:32;3.22;;;2.80;;
46084;SDS011;31823;47.032;8.310;2022-08-03T15:33:58;3.65;;;3.30;;
46084;SDS011;31823;47.032;8.310;2022-08-03T15:36:23;9.88;;;3.22;;
46084;SDS011;31823;47.032;8.310;2022-08-03T15:38:50;5.32;;;3.53;;
46084;SDS011;31823;47.032;8.310;2022-08-03T15:41:17;2.83;;;2.63;;
46084;SDS011;31823;47.032;8.310;2022-08-03T15:43:42;3.67;;;3.20;;
46084;SDS011;31823;47.032;8.310;2022-08-03T15:46:10;6.25;;;3.20;;
46084;SDS011;31823;47.032;8.310;2022-08-03T15:48:37;8.88;;;3.75;;
46084;SDS011;31823;47.032;8.310;2022-08-03T15:51:03;6.93;;;3.20;;
46084;SDS011;31823;47.032;8.310;2022-08-03T15:53:30;5.30;;;2.88;;